Airfield :
LOGIN :

Register | Disclaimer

   EN    FR    IT 

 










Legend :    VFR   Marginal VFR   IFR   Intensive IFR   Very Intensive IFR
Visi :
Ceiling :
>= 8 km
>= 3000ft
5 to 8 km
1000 to 3000 ft
1500m to 5 km
500 to 1000 ft
800 to 1500m
200 to 500 ft
< 800m
< 200 ft
Symbols :   Thunderstorms  Fog  Heavy snow  Heavy precipitations  Wind > 20 kt
SIGMETs :     Misc.  Thunderstorms  Icing  Turbulence  Mountain Waves  Volcanic Ashes






- Airport Elevation : 284 ft


EGUW - RAF Wattisham

CURRENT METAR :
  • 011550Z 27019KT 9999 FEW035 BKN042 09/04 Q1021 NOSIG RMK BLU BLU

EXPIRED METARs :
  • 011520Z 28017G27KT 9999 FEW035 BKN040 09/04 Q1021 NOSIG RMK BLU BLU
  • 011450Z 28017KT 9999 FEW032 SCT040 BKN250 09/04 Q1021 NOSIG RMK BLU BLU
  • 011420Z 27016KT 9999 FEW031 BKN040 09/04 Q1021 NOSIG RMK BLU BLU
  • 011350Z 27020KT 9999 BKN043 09/04 Q1020 NOSIG RMK BLU BLU
  • 011320Z 27021KT 9999 BKN035 09/04 Q1020 NOSIG RMK BLU BLU

TAF TAF EGUW
Valid from the 01 at 15:00 until the 02 at 00:00 UTC


011324Z 0115/0124 27017G27KT 9999 SCT040
PROB30
TEMPO 0116/0124 SCT024
BECMG 0117/0119 27013KT



MET'MAP, your aeronautical weather chart ! - Copyright ORBIFLY December 2007 - Disclaimer

ORBIFLY MET'MAP TEAM :

Programming & Development : Alexandra Zaïnal
Original concept : Baudouin d'Aumeries
Technical & hardware support : Manuel Goepfert
Assistance : Marc-Olivier Méhu




SOURCES & CREDITS :

   NOAA